BAW81A EGLL-ZSPD
Flight info
| Callsign | BAW81A |
|---|---|
| Flight time | N/A |
| Altitude | 33000 |
| Route | DET L6 DVR UL9 KONAN UL607 MATUG DCT BOMBI DCT LEPSA DCT RTB DCT PINQI DCT PESAT DCT TEGRI DCT OSTAL/N0486F350 DCT LUGEB DCT UDROS UM859 KARDE UN644 ROLIN N644 ADEKI DCT LEYLA N161 GASBI/K0907F350 N161 TITIL/K0902F370 N161 SARIN/K0902S1130 A368 FKG W188 BATUS/K0893S1190 W188 LIKMI DCT DKO W64 LAXIB W560 TODAM B208 HFE R343 SASAN SAS81A |
| Aircraft | A35K/H-SDE2E3GHIJ3J4J5LM1ORWXY/LB1D1 |
Departure
| Time | 2026-05-04 09:01 |
|---|---|
| Airport | London Heathrow Airport (EGLL) |
Arrival
| Time | N/A |
|---|---|
| Airport | Shanghai Pudong International Airport (ZSPD) |
| Time | Latitude | Longitude | Altitude | Speed | Heading |
|---|---|---|---|---|---|
| 2026-05-04 08:37 | 51.47220 | -0.47741 | 9 ft | 0 kts | 90° |
| 2026-05-04 08:48 | 51.47220 | -0.47773 | 93 ft | 4 kts | 90° |
| 2026-05-04 08:49 | 51.47220 | -0.47816 | 92 ft | 4 kts | 90° |
| 2026-05-04 08:50 | 51.47215 | -0.47874 | 92 ft | 3 kts | 124° |
| 2026-05-04 08:50 | 51.47163 | -0.47869 | 93 ft | 13 kts | 180° |
| 2026-05-04 08:51 | 51.47072 | -0.47869 | 91 ft | 14 kts | 180° |
| 2026-05-04 08:51 | 51.47001 | -0.47870 | 91 ft | 6 kts | 180° |
| 2026-05-04 08:51 | 51.46957 | -0.47870 | 93 ft | 7 kts | 180° |
| 2026-05-04 08:51 | 51.46901 | -0.47870 | 91 ft | 9 kts | 180° |
| 2026-05-04 08:52 | 51.46835 | -0.47870 | 91 ft | 10 kts | 180° |
| 2026-05-04 08:52 | 51.46757 | -0.47870 | 91 ft | 12 kts | 180° |
| 2026-05-04 08:52 | 51.46680 | -0.47838 | 92 ft | 12 kts | 135° |
| 2026-05-04 08:52 | 51.46656 | -0.47708 | 90 ft | 13 kts | 91° |
| 2026-05-04 08:53 | 51.46656 | -0.47534 | 89 ft | 18 kts | 90° |
| 2026-05-04 08:54 | 51.46661 | -0.45852 | 89 ft | 31 kts | 89° |
| 2026-05-04 08:55 | 51.46663 | -0.45512 | 88 ft | 29 kts | 89° |
| 2026-05-04 08:55 | 51.46665 | -0.45195 | 92 ft | 27 kts | 89° |
| 2026-05-04 08:55 | 51.46666 | -0.44901 | 95 ft | 26 kts | 90° |
| 2026-05-04 08:55 | 51.46666 | -0.44619 | 94 ft | 26 kts | 90° |
| 2026-05-04 08:57 | 51.46647 | -0.43849 | 92 ft | 0 kts | 150° |
| 2026-05-04 09:01 | 51.39028 | -0.44385 | 4120 ft | 260 kts | 148° |
| 2026-05-04 09:01 | 51.37476 | -0.42885 | 4728 ft | 263 kts | 149° |
| 2026-05-04 09:01 | 51.35875 | -0.41392 | 5375 ft | 266 kts | 150° |
| 2026-05-04 09:01 | 51.34260 | -0.39908 | 6025 ft | 268 kts | 150° |
| 2026-05-04 09:02 | 51.32711 | -0.38276 | 6706 ft | 269 kts | 139° |
| 2026-05-04 09:02 | 51.31600 | -0.35869 | 7358 ft | 274 kts | 112° |
| 2026-05-04 09:02 | 51.31313 | -0.32886 | 7941 ft | 281 kts | 84° |
| 2026-05-04 09:02 | 51.31688 | -0.29804 | 8578 ft | 285 kts | 83° |
| 2026-05-04 09:03 | 51.31810 | -0.26636 | 9228 ft | 288 kts | 91° |
| 2026-05-04 09:03 | 51.31790 | -0.23453 | 9895 ft | 291 kts | 92° |
| 2026-05-04 09:03 | 51.31747 | -0.20187 | 10373 ft | 302 kts | 93° |
| 2026-05-04 09:03 | 51.31697 | -0.16728 | 10645 ft | 319 kts | 93° |
| 2026-05-04 09:04 | 51.31648 | -0.13079 | 10926 ft | 337 kts | 92° |
| 2026-05-04 09:04 | 51.31591 | -0.09244 | 11210 ft | 353 kts | 92° |
| 2026-05-04 09:04 | 51.31532 | -0.05239 | 11500 ft | 369 kts | 92° |
| 2026-05-04 09:04 | 51.31470 | -0.01050 | 11794 ft | 383 kts | 92° |
| 2026-05-04 09:05 | 51.31404 | 0.03254 | 12229 ft | 392 kts | 92° |
| 2026-05-04 09:05 | 51.31336 | 0.07637 | 12817 ft | 397 kts | 92° |
| 2026-05-04 09:05 | 51.31266 | 0.12067 | 13455 ft | 401 kts | 92° |
| 2026-05-04 09:05 | 51.31194 | 0.16543 | 14037 ft | 405 kts | 93° |
| 2026-05-04 09:06 | 51.31119 | 0.21054 | 14602 ft | 408 kts | 93° |
| 2026-05-04 09:07 | 51.30525 | 0.53738 | 18462 ft | 434 kts | 93° |
| 2026-05-04 09:08 | 51.30356 | 0.58633 | 18965 ft | 437 kts | 98° |
| 2026-05-04 09:08 | 51.29804 | 0.63411 | 19528 ft | 438 kts | 105° |
| 2026-05-04 09:08 | 51.29050 | 0.68065 | 20063 ft | 440 kts | 108° |
| 2026-05-04 09:08 | 51.28182 | 0.72766 | 20603 ft | 443 kts | 109° |
| 2026-05-04 09:09 | 51.27269 | 0.77484 | 21148 ft | 446 kts | 109° |
| 2026-05-04 09:09 | 51.26347 | 0.82228 | 21686 ft | 449 kts | 109° |
| 2026-05-04 09:09 | 51.25427 | 0.87020 | 22221 ft | 452 kts | 109° |
| 2026-05-04 09:09 | 51.24514 | 0.91847 | 22753 ft | 456 kts | 109° |
| 2026-05-04 09:10 | 51.23604 | 0.96707 | 23259 ft | 460 kts | 109° |
| 2026-05-04 09:10 | 51.22686 | 1.01631 | 23609 ft | 467 kts | 109° |
| 2026-05-04 09:10 | 51.21759 | 1.06611 | 24050 ft | 470 kts | 109° |
| 2026-05-04 09:10 | 51.20827 | 1.11622 | 24528 ft | 472 kts | 109° |
| 2026-05-04 09:11 | 51.19888 | 1.16647 | 24995 ft | 474 kts | 110° |
| 2026-05-04 09:11 | 51.18943 | 1.21691 | 25451 ft | 477 kts | 110° |
| 2026-05-04 09:11 | 51.17984 | 1.26790 | 25894 ft | 479 kts | 110° |
| 2026-05-04 09:11 | 51.17045 | 1.31824 | 26318 ft | 483 kts | 109° |
| 2026-05-04 09:12 | 51.16344 | 1.37095 | 26740 ft | 490 kts | 101° |
| 2026-05-04 09:12 | 51.15946 | 1.42502 | 27140 ft | 494 kts | 99° |
| 2026-05-04 09:14 | 51.14049 | 1.81326 | 30201 ft | 502 kts | 99° |
| 2026-05-04 09:14 | 51.13768 | 1.86863 | 30596 ft | 501 kts | 99° |
| 2026-05-04 09:14 | 51.13483 | 1.92403 | 30898 ft | 502 kts | 99° |
| 2026-05-04 09:14 | 51.13192 | 1.97960 | 31175 ft | 503 kts | 99° |
| 2026-05-04 09:15 | 51.12902 | 2.03506 | 31524 ft | 502 kts | 99° |
| 2026-05-04 09:15 | 51.12615 | 2.08973 | 31878 ft | 502 kts | 100° |
| 2026-05-04 09:15 | 51.12319 | 2.14503 | 32210 ft | 501 kts | 100° |
| 2026-05-04 09:15 | 51.12018 | 2.20043 | 32543 ft | 501 kts | 100° |
| 2026-05-04 09:17 | 51.09419 | 2.64319 | 33995 ft | 503 kts | 106° |
| 2026-05-04 09:18 | 51.07732 | 2.75037 | 33993 ft | 498 kts | 111° |
| 2026-05-04 09:18 | 51.06147 | 2.83839 | 33973 ft | 497 kts | 112° |
| 2026-05-04 09:19 | 51.04200 | 2.94362 | 33994 ft | 501 kts | 112° |
| 2026-05-04 09:19 | 51.01916 | 3.06715 | 33993 ft | 502 kts | 112° |
| 2026-05-04 09:20 | 51.00274 | 3.15614 | 33990 ft | 502 kts | 112° |
| 2026-05-04 09:20 | 50.98309 | 3.26220 | 33988 ft | 501 kts | 112° |
| 2026-05-04 09:21 | 50.96341 | 3.36774 | 33991 ft | 504 kts | 112° |
| 2026-05-04 09:21 | 50.94356 | 3.47340 | 33969 ft | 506 kts | 112° |
| 2026-05-04 09:22 | 50.92341 | 3.58032 | 33985 ft | 506 kts | 112° |
| 2026-05-04 09:22 | 50.90317 | 3.68716 | 33989 ft | 506 kts | 112° |
| 2026-05-04 09:23 | 50.88259 | 3.79392 | 33982 ft | 506 kts | 113° |
| 2026-05-04 09:23 | 50.86176 | 3.90084 | 33985 ft | 509 kts | 113° |